Terminal Aerodrome Forecast
Issued by NWS

Home | Current Version | Previous Version | Text Only | Print | Product List | Glossary On
Versions: 1 2 3 4 5 6 7 8 9 10 11 12 13 14 15 16 17 18
000
FTUS43 KICT 221100
TAFCNU
TAF
KCNU 221131Z 2212/2312 13007KT P6SM SCT035 BKN060
     FM221700 16012KT P6SM FEW035 SCT060
     FM230400 16007KT P6SM VCSH SCT025 OVC050=

USA.gov is the U.S. government's official web portal to all federal, state and local government web resources and services.